This is the latest recevied weather packets stored in our database for station/object KF6ILA. If no packets are shown the sender has not sent any weather packets the latest 10 day(s).
| Time | Temp. | Humidity | Pressure | Rain* | Wind** | Luminosity | Snow |
|---|---|---|---|---|---|---|---|
| 1787767831 | 34.44° C | 24% | 1018.9 hPa | 0 mm | - | 912 W/m² | - |
| 1787767534 | 35° C | 25% | 1018.9 hPa | 0 mm | - | 898 W/m² | - |
| 1787766346 | 33.89° C | 24% | 1018.8 hPa | 0 mm | - | 831 W/m² | - |
| 1787766049 | 33.89° C | 25% | 1018.8 hPa | 0 mm | - | 821 W/m² | - |
| 1787765455 | 33.89° C | 24% | 1018.7 hPa | 0 mm | - | 795 W/m² | - |
| 1787765158 | 33.89° C | 23% | 1018.8 hPa | 0 mm | - | 780 W/m² | - |
| 1787764861 | 33.89° C | 24% | 1018.7 hPa | 0 mm | - | 772 W/m² | - |
| 1787763970 | 33.33° C | 23% | 1018.5 hPa | 0 mm | - | 733 W/m² | - |
| 1787763376 | 33.33° C | 25% | 1018.6 hPa | 0 mm | - | 686 W/m² | - |
| 1787763079 | 32.78° C | 24% | 1018.7 hPa | 0 mm | - | 687 W/m² | - |
| 1787762782 | 32.78° C | 26% | 1018.7 hPa | 0 mm | - | 673 W/m² | - |
| 1787762485 | 32.78° C | 27% | 1018.7 hPa | 0 mm | - | 659 W/m² | - |
| 1787761891 | 32.22° C | 27% | 1018.5 hPa | 0 mm | - | 629 W/m² | - |
| 1787761594 | 31.67° C | - | - | 0 mm | - | - | - |
| 1787761297 | 31.67° C | 29% | 1018.4 hPa | 0 mm | - | 598 W/m² | - |
| 1787760406 | 31.11° C | 29% | 1018.4 hPa | 0 mm | - | 548 W/m² | - |
| 1787760109 | 31.11° C | 30% | 1018.2 hPa | 0 mm | - | 533 W/m² | - |
| 1787759812 | 31.11° C | 29% | 1018.4 hPa | 0 mm | - | 517 W/m² | - |
| 1787759515 | 31.11° C | 29% | 1018.3 hPa | 0 mm | - | 503 W/m² | - |
| 1787759218 | 31.11° C | 29% | 1018.2 hPa | 0 mm | - | 485 W/m² | - |
| 1787758921 | 30.56° C | 29% | 1018.2 hPa | 0 mm | - | 469 W/m² | - |
| 1787758624 | 30.56° C | 29% | 1018.1 hPa | 0 mm | - | 450 W/m² | - |
| 1787758030 | 30.56° C | 29% | 1018.2 hPa | 0 mm | - | 415 W/m² | - |
| 1787757733 | 30.56° C | 29% | 1018.2 hPa | 0 mm | - | 397 W/m² | - |
| 1787756842 | 30° C | 29% | 1018.1 hPa | 0 mm | - | 343 W/m² | - |
* Rain latest hour (hover to see other rain measurements)
** Current wind speed in m/s (hover to see current wind gust speed)